Terminal Aerodrome Forecast
Issued by NWS Brownsville, TX

Home | Current Version | Previous Version | Text Only | Print | Product List | Glossary On
Versions: 1 2 3 4 5 6 7 8 9 10 11 12
000
FTUS44 KBRO 301720
TAFBRO
TAF
KBRO 301720Z 3018/3118 34010KT P6SM SCT030
     FM301900 08010G16KT P6SM VCSH SCT030 BKN035
      TEMPO 3019/3023 -TSRA BKN020CB
     FM310200 05003KT P6SM VCSH BKN035
     FM310500 VRB02KT P6SM VCSH BKN025
     FM311400 02007KT P6SM VCSH BKN025=

USA.gov is the U.S. government's official web portal to all federal, state and local government web resources and services.